sensor_id;sensor_type;location;lat;lon;timestamp;pressure;altitude;pressure_sealevel;temperature;humidity
36242;BME280;22283;42.748;12.732;2023-12-28T00:00:15;99279.25;;;4.40;100.00
36242;BME280;22283;42.748;12.732;2023-12-28T00:05:16;99288.53;;;4.51;100.00
36242;BME280;22283;42.748;12.732;2023-12-28T00:10:16;99289.78;;;4.67;100.00
36242;BME280;22283;42.748;12.732;2023-12-28T00:15:17;99288.28;;;4.60;100.00
36242;BME280;22283;42.748;12.732;2023-12-28T00:20:18;99284.84;;;4.58;100.00
36242;BME280;22283;42.748;12.732;2023-12-28T00:25:19;99285.22;;;4.46;100.00
36242;BME280;22283;42.748;12.732;2023-12-28T00:30:20;99287.38;;;4.31;100.00
36242;BME280;22283;42.748;12.732;2023-12-28T00:35:20;99290.03;;;4.30;100.00
36242;BME280;22283;42.748;12.732;2023-12-28T00:40:21;99304.41;;;4.46;100.00
36242;BME280;22283;42.748;12.732;2023-12-28T00:45:23;99300.38;;;4.34;100.00
36242;BME280;22283;42.748;12.732;2023-12-28T00:50:24;99305.25;;;4.17;100.00
36242;BME280;22283;42.748;12.732;2023-12-28T00:55:27;99307.47;;;4.00;100.00
36242;BME280;22283;42.748;12.732;2023-12-28T01:00:28;99318.59;;;4.08;100.00
36242;BME280;22283;42.748;12.732;2023-12-28T01:05:29;99313.19;;;4.14;100.00
36242;BME280;22283;42.748;12.732;2023-12-28T01:10:30;99291.03;;;3.94;100.00
36242;BME280;22283;42.748;12.732;2023-12-28T01:15:30;99299.50;;;4.04;100.00
36242;BME280;22283;42.748;12.732;2023-12-28T01:20:31;99309.94;;;4.35;100.00
36242;BME280;22283;42.748;12.732;2023-12-28T01:25:31;99309.72;;;4.73;100.00
36242;BME280;22283;42.748;12.732;2023-12-28T01:30:32;99303.66;;;4.99;100.00
36242;BME280;22283;42.748;12.732;2023-12-28T01:35:34;99306.66;;;5.14;100.00
36242;BME280;22283;42.748;12.732;2023-12-28T01:40:35;99311.88;;;5.14;100.00
36242;BME280;22283;42.748;12.732;2023-12-28T01:45:35;99323.63;;;5.03;100.00
36242;BME280;22283;42.748;12.732;2023-12-28T01:50:36;99321.06;;;4.73;100.00
36242;BME280;22283;42.748;12.732;2023-12-28T01:55:37;99310.63;;;4.72;100.00
36242;BME280;22283;42.748;12.732;2023-12-28T02:00:37;99320.91;;;4.78;100.00
36242;BME280;22283;42.748;12.732;2023-12-28T02:05:40;99315.28;;;4.91;100.00
36242;BME280;22283;42.748;12.732;2023-12-28T02:10:40;99310.78;;;4.95;100.00
36242;BME280;22283;42.748;12.732;2023-12-28T02:15:42;99308.97;;;4.97;100.00
36242;BME280;22283;42.748;12.732;2023-12-28T02:20:44;99314.88;;;5.04;100.00
36242;BME280;22283;42.748;12.732;2023-12-28T02:25:44;99312.00;;;5.11;100.00
36242;BME280;22283;42.748;12.732;2023-12-28T02:30:46;99313.78;;;5.11;100.00
36242;BME280;22283;42.748;12.732;2023-12-28T02:36:00;99306.78;;;5.11;100.00
36242;BME280;22283;42.748;12.732;2023-12-28T02:41:02;99288.66;;;5.04;100.00
36242;BME280;22283;42.748;12.732;2023-12-28T02:46:03;99272.19;;;4.99;100.00
36242;BME280;22283;42.748;12.732;2023-12-28T02:51:04;99273.00;;;5.01;100.00
36242;BME280;22283;42.748;12.732;2023-12-28T02:56:05;99267.75;;;5.01;100.00
36242;BME280;22283;42.748;12.732;2023-12-28T03:01:06;99267.66;;;5.04;100.00
36242;BME280;22283;42.748;12.732;2023-12-28T03:06:08;99265.56;;;5.15;100.00
36242;BME280;22283;42.748;12.732;2023-12-28T03:11:08;99256.78;;;5.16;100.00
36242;BME280;22283;42.748;12.732;2023-12-28T03:16:09;99246.28;;;5.16;100.00
36242;BME280;22283;42.748;12.732;2023-12-28T03:21:10;99255.59;;;5.25;100.00
36242;BME280;22283;42.748;12.732;2023-12-28T03:26:11;99242.41;;;5.26;100.00
36242;BME280;22283;42.748;12.732;2023-12-28T03:31:12;99263.13;;;5.35;100.00
36242;BME280;22283;42.748;12.732;2023-12-28T03:36:19;99245.53;;;5.37;100.00
36242;BME280;22283;42.748;12.732;2023-12-28T03:41:20;99248.88;;;5.42;100.00
36242;BME280;22283;42.748;12.732;2023-12-28T03:46:21;99243.63;;;5.42;100.00
36242;BME280;22283;42.748;12.732;2023-12-28T03:51:22;99252.19;;;5.48;100.00
36242;BME280;22283;42.748;12.732;2023-12-28T03:56:24;99258.47;;;5.43;100.00
36242;BME280;22283;42.748;12.732;2023-12-28T04:01:27;99256.03;;;5.37;100.00
36242;BME280;22283;42.748;12.732;2023-12-28T04:06:28;99263.22;;;5.32;100.00
36242;BME280;22283;42.748;12.732;2023-12-28T04:11:28;99254.31;;;5.36;100.00
36242;BME280;22283;42.748;12.732;2023-12-28T04:16:31;99244.41;;;5.45;100.00
36242;BME280;22283;42.748;12.732;2023-12-28T04:21:32;99256.25;;;5.56;100.00
36242;BME280;22283;42.748;12.732;2023-12-28T04:26:32;99242.22;;;5.57;100.00
36242;BME280;22283;42.748;12.732;2023-12-28T04:31:39;99242.22;;;5.57;100.00
36242;BME280;22283;42.748;12.732;2023-12-28T04:36:41;99253.78;;;5.77;100.00
36242;BME280;22283;42.748;12.732;2023-12-28T04:41:43;99252.03;;;5.77;100.00
36242;BME280;22283;42.748;12.732;2023-12-28T04:46:43;99261.63;;;5.78;100.00
36242;BME280;22283;42.748;12.732;2023-12-28T04:51:45;99263.91;;;5.87;100.00
36242;BME280;22283;42.748;12.732;2023-12-28T04:56:46;99257.91;;;5.84;100.00
36242;BME280;22283;42.748;12.732;2023-12-28T05:01:47;99275.03;;;5.96;100.00
36242;BME280;22283;42.748;12.732;2023-12-28T05:06:47;99273.19;;;5.98;100.00
36242;BME280;22283;42.748;12.732;2023-12-28T05:11:48;99275.53;;;6.05;100.00
36242;BME280;22283;42.748;12.732;2023-12-28T05:16:49;99278.06;;;6.08;100.00
36242;BME280;22283;42.748;12.732;2023-12-28T05:21:50;99286.59;;;6.15;100.00
36242;BME280;22283;42.748;12.732;2023-12-28T05:26:50;99269.97;;;6.14;100.00
36242;BME280;22283;42.748;12.732;2023-12-28T05:31:51;99286.25;;;6.24;100.00
36242;BME280;22283;42.748;12.732;2023-12-28T05:36:52;99284.53;;;6.23;100.00
36242;BME280;22283;42.748;12.732;2023-12-28T05:41:52;99277.41;;;6.27;100.00
36242;BME280;22283;42.748;12.732;2023-12-28T05:46:53;99283.72;;;6.45;100.00
36242;BME280;22283;42.748;12.732;2023-12-28T05:51:53;99300.31;;;6.47;100.00
36242;BME280;22283;42.748;12.732;2023-12-28T05:56:54;99293.06;;;6.53;100.00
36242;BME280;22283;42.748;12.732;2023-12-28T06:01:55;99291.59;;;6.68;100.00
36242;BME280;22283;42.748;12.732;2023-12-28T06:06:56;99285.38;;;6.71;100.00
36242;BME280;22283;42.748;12.732;2023-12-28T06:11:56;99286.59;;;6.62;100.00
36242;BME280;22283;42.748;12.732;2023-12-28T06:16:57;99275.72;;;6.48;100.00
36242;BME280;22283;42.748;12.732;2023-12-28T06:21:57;99280.31;;;6.43;100.00
36242;BME280;22283;42.748;12.732;2023-12-28T06:26:58;99275.53;;;6.30;100.00
36242;BME280;22283;42.748;12.732;2023-12-28T06:31:59;99268.84;;;6.22;100.00
36242;BME280;22283;42.748;12.732;2023-12-28T06:37:00;99267.22;;;6.18;100.00
36242;BME280;22283;42.748;12.732;2023-12-28T06:42:01;99268.19;;;6.15;100.00
36242;BME280;22283;42.748;12.732;2023-12-28T06:47:02;99281.38;;;6.13;100.00
36242;BME280;22283;42.748;12.732;2023-12-28T06:52:03;99281.69;;;6.06;100.00
36242;BME280;22283;42.748;12.732;2023-12-28T06:57:04;99292.81;;;6.12;100.00
36242;BME280;22283;42.748;12.732;2023-12-28T07:02:05;99295.97;;;6.22;100.00
36242;BME280;22283;42.748;12.732;2023-12-28T07:07:06;99305.97;;;6.36;100.00
36242;BME280;22283;42.748;12.732;2023-12-28T07:12:06;99315.06;;;6.51;100.00
36242;BME280;22283;42.748;12.732;2023-12-28T07:17:07;99327.44;;;6.71;100.00
36242;BME280;22283;42.748;12.732;2023-12-28T07:22:08;99326.59;;;6.92;100.00
36242;BME280;22283;42.748;12.732;2023-12-28T07:27:08;99312.81;;;7.09;100.00
36242;BME280;22283;42.748;12.732;2023-12-28T07:33:40;99296.25;;;7.27;100.00
36242;BME280;22283;42.748;12.732;2023-12-28T07:38:41;99310.44;;;7.45;100.00
36242;BME280;22283;42.748;12.732;2023-12-28T07:43:42;99293.66;;;7.68;100.00
36242;BME280;22283;42.748;12.732;2023-12-28T07:48:42;99320.88;;;7.89;100.00
36242;BME280;22283;42.748;12.732;2023-12-28T07:53:43;99305.44;;;8.00;100.00
36242;BME280;22283;42.748;12.732;2023-12-28T07:58:44;99306.41;;;8.18;100.00
36242;BME280;22283;42.748;12.732;2023-12-28T08:03:44;99313.59;;;8.54;100.00
36242;BME280;22283;42.748;12.732;2023-12-28T08:08:45;99318.53;;;8.80;100.00
36242;BME280;22283;42.748;12.732;2023-12-28T08:13:46;99326.63;;;8.95;100.00
36242;BME280;22283;42.748;12.732;2023-12-28T08:18:47;99308.91;;;8.79;100.00
36242;BME280;22283;42.748;12.732;2023-12-28T08:23:48;99321.31;;;8.77;100.00
36242;BME280;22283;42.748;12.732;2023-12-28T08:28:48;99342.84;;;8.68;100.00
36242;BME280;22283;42.748;12.732;2023-12-28T08:33:49;99326.88;;;8.71;100.00
36242;BME280;22283;42.748;12.732;2023-12-28T08:38:50;99334.00;;;8.88;100.00
36242;BME280;22283;42.748;12.732;2023-12-28T08:43:51;99351.09;;;9.17;100.00
36242;BME280;22283;42.748;12.732;2023-12-28T08:48:52;99367.47;;;9.43;100.00
36242;BME280;22283;42.748;12.732;2023-12-28T08:53:53;99366.16;;;9.51;100.00
36242;BME280;22283;42.748;12.732;2023-12-28T08:58:53;99380.25;;;9.69;100.00
36242;BME280;22283;42.748;12.732;2023-12-28T09:03:55;99368.53;;;9.75;100.00
36242;BME280;22283;42.748;12.732;2023-12-28T09:08:56;99383.44;;;9.93;100.00
36242;BME280;22283;42.748;12.732;2023-12-28T09:13:57;99381.22;;;10.03;100.00
36242;BME280;22283;42.748;12.732;2023-12-28T09:18:57;99393.94;;;10.12;100.00
36242;BME280;22283;42.748;12.732;2023-12-28T09:23:58;99410.06;;;10.25;100.00
36242;BME280;22283;42.748;12.732;2023-12-28T09:28:59;99397.38;;;10.14;100.00
36242;BME280;22283;42.748;12.732;2023-12-28T09:33:59;99408.41;;;10.05;100.00
36242;BME280;22283;42.748;12.732;2023-12-28T09:39:00;99402.41;;;10.01;100.00
36242;BME280;22283;42.748;12.732;2023-12-28T09:49:05;99398.53;;;10.08;100.00
36242;BME280;22283;42.748;12.732;2023-12-28T09:54:06;99392.25;;;10.11;100.00
36242;BME280;22283;42.748;12.732;2023-12-28T09:59:07;99391.91;;;10.17;100.00
36242;BME280;22283;42.748;12.732;2023-12-28T10:04:08;99385.25;;;10.27;100.00
36242;BME280;22283;42.748;12.732;2023-12-28T10:09:09;99380.56;;;10.32;100.00
36242;BME280;22283;42.748;12.732;2023-12-28T10:14:11;99382.75;;;10.42;100.00
36242;BME280;22283;42.748;12.732;2023-12-28T10:19:12;99374.63;;;10.45;100.00
36242;BME280;22283;42.748;12.732;2023-12-28T10:24:13;99372.44;;;10.53;100.00
36242;BME280;22283;42.748;12.732;2023-12-28T10:29:14;99367.53;;;10.63;100.00
36242;BME280;22283;42.748;12.732;2023-12-28T10:34:15;99368.66;;;10.74;100.00
36242;BME280;22283;42.748;12.732;2023-12-28T10:39:19;99349.28;;;10.74;100.00
36242;BME280;22283;42.748;12.732;2023-12-28T10:44:20;99353.97;;;10.84;100.00
36242;BME280;22283;42.748;12.732;2023-12-28T10:49:24;99358.00;;;10.92;100.00
36242;BME280;22283;42.748;12.732;2023-12-28T11:00:00;99346.41;;;11.10;100.00
36242;BME280;22283;42.748;12.732;2023-12-28T11:05:04;99337.34;;;11.14;100.00
36242;BME280;22283;42.748;12.732;2023-12-28T11:10:06;99325.63;;;11.18;100.00
36242;BME280;22283;42.748;12.732;2023-12-28T11:15:08;99320.75;;;11.26;100.00
36242;BME280;22283;42.748;12.732;2023-12-28T11:20:10;99318.91;;;11.43;100.00
36242;BME280;22283;42.748;12.732;2023-12-28T11:25:18;99304.94;;;11.55;98.91
36242;BME280;22283;42.748;12.732;2023-12-28T11:30:19;99291.75;;;11.69;94.91
36242;BME280;22283;42.748;12.732;2023-12-28T11:35:19;99289.31;;;11.80;91.59
36242;BME280;22283;42.748;12.732;2023-12-28T11:40:20;99278.28;;;11.88;90.27
36242;BME280;22283;42.748;12.732;2023-12-28T11:45:24;99259.44;;;12.07;88.45
36242;BME280;22283;42.748;12.732;2023-12-28T11:50:25;99251.50;;;12.21;85.82
36242;BME280;22283;42.748;12.732;2023-12-28T11:55:26;99250.16;;;12.43;82.86
36242;BME280;22283;42.748;12.732;2023-12-28T12:00:27;99245.59;;;12.59;81.76
36242;BME280;22283;42.748;12.732;2023-12-28T12:05:27;99233.97;;;12.74;73.35
36242;BME280;22283;42.748;12.732;2023-12-28T12:10:28;99222.97;;;12.80;70.03
36242;BME280;22283;42.748;12.732;2023-12-28T12:15:30;99208.56;;;12.97;67.90
36242;BME280;22283;42.748;12.732;2023-12-28T12:20:30;99211.19;;;13.12;68.14
36242;BME280;22283;42.748;12.732;2023-12-28T12:25:31;99193.88;;;13.19;68.79
36242;BME280;22283;42.748;12.732;2023-12-28T12:30:32;99204.41;;;13.20;70.05
36242;BME280;22283;42.748;12.732;2023-12-28T12:35:33;99178.66;;;13.08;69.13
36242;BME280;22283;42.748;12.732;2023-12-28T12:40:34;99170.47;;;13.11;68.84
36242;BME280;22283;42.748;12.732;2023-12-28T12:45:35;99186.38;;;13.25;67.37
36242;BME280;22283;42.748;12.732;2023-12-28T12:50:36;99184.28;;;13.31;65.87
36242;BME280;22283;42.748;12.732;2023-12-28T12:55:37;99177.22;;;13.29;67.01
36242;BME280;22283;42.748;12.732;2023-12-28T13:00:45;99172.72;;;13.17;66.23
36242;BME280;22283;42.748;12.732;2023-12-28T13:05:45;99161.56;;;13.12;64.69
36242;BME280;22283;42.748;12.732;2023-12-28T13:10:46;99162.44;;;12.98;65.65
36242;BME280;22283;42.748;12.732;2023-12-28T13:15:47;99166.53;;;13.04;65.90
36242;BME280;22283;42.748;12.732;2023-12-28T13:20:47;99171.88;;;13.17;66.59
36242;BME280;22283;42.748;12.732;2023-12-28T13:25:48;99172.34;;;13.23;64.52
36242;BME280;22283;42.748;12.732;2023-12-28T13:30:49;99174.03;;;13.24;63.46
36242;BME280;22283;42.748;12.732;2023-12-28T13:35:51;99170.88;;;13.32;62.26
36242;BME280;22283;42.748;12.732;2023-12-28T13:40:52;99155.03;;;13.31;61.88
36242;BME280;22283;42.748;12.732;2023-12-28T13:45:52;99155.03;;;13.31;61.56
36242;BME280;22283;42.748;12.732;2023-12-28T13:50:53;99161.72;;;13.23;62.02
36242;BME280;22283;42.748;12.732;2023-12-28T13:55:54;99144.66;;;13.13;62.42
36242;BME280;22283;42.748;12.732;2023-12-28T14:00:56;99155.28;;;13.13;62.51
36242;BME280;22283;42.748;12.732;2023-12-28T14:05:57;99159.53;;;13.03;63.22
36242;BME280;22283;42.748;12.732;2023-12-28T14:10:58;99158.22;;;12.96;64.71
36242;BME280;22283;42.748;12.732;2023-12-28T14:15:58;99147.22;;;12.75;65.97
36242;BME280;22283;42.748;12.732;2023-12-28T14:20:59;99161.38;;;12.61;67.22
36242;BME280;22283;42.748;12.732;2023-12-28T14:26:02;99164.84;;;12.49;69.32
36242;BME280;22283;42.748;12.732;2023-12-28T14:31:03;99144.22;;;12.40;73.06
36242;BME280;22283;42.748;12.732;2023-12-28T14:36:05;99151.22;;;12.26;71.14
36242;BME280;22283;42.748;12.732;2023-12-28T14:41:08;99159.78;;;12.17;72.15
36242;BME280;22283;42.748;12.732;2023-12-28T14:46:09;99139.53;;;12.02;78.76
36242;BME280;22283;42.748;12.732;2023-12-28T14:51:10;99155.91;;;12.09;84.89
36242;BME280;22283;42.748;12.732;2023-12-28T14:56:10;99157.31;;;12.28;92.89
36242;BME280;22283;42.748;12.732;2023-12-28T15:01:14;99153.91;;;12.12;82.10
36242;BME280;22283;42.748;12.732;2023-12-28T15:06:14;99151.28;;;11.84;77.63
36242;BME280;22283;42.748;12.732;2023-12-28T15:11:16;99155.50;;;11.72;80.82
36242;BME280;22283;42.748;12.732;2023-12-28T15:16:17;99151.72;;;11.62;80.17
36242;BME280;22283;42.748;12.732;2023-12-28T15:21:18;99150.97;;;11.45;78.47
36242;BME280;22283;42.748;12.732;2023-12-28T15:26:19;99148.84;;;11.36;80.32
36242;BME280;22283;42.748;12.732;2023-12-28T15:31:20;99145.91;;;11.26;77.80
36242;BME280;22283;42.748;12.732;2023-12-28T15:36:20;99139.25;;;11.19;80.35
36242;BME280;22283;42.748;12.732;2023-12-28T15:41:21;99144.88;;;11.29;82.47
36242;BME280;22283;42.748;12.732;2023-12-28T15:46:22;99135.88;;;11.31;80.75
36242;BME280;22283;42.748;12.732;2023-12-28T15:51:23;99142.03;;;11.32;78.58
36242;BME280;22283;42.748;12.732;2023-12-28T15:56:23;99134.94;;;11.32;76.19
36242;BME280;22283;42.748;12.732;2023-12-28T16:01:24;99147.41;;;11.30;76.32
36242;BME280;22283;42.748;12.732;2023-12-28T16:06:25;99143.25;;;11.26;75.94
36242;BME280;22283;42.748;12.732;2023-12-28T16:11:26;99147.31;;;11.18;77.24
36242;BME280;22283;42.748;12.732;2023-12-28T16:16:26;99148.16;;;11.18;76.54
36242;BME280;22283;42.748;12.732;2023-12-28T16:21:27;99144.56;;;11.19;78.23
36242;BME280;22283;42.748;12.732;2023-12-28T16:26:31;99139.09;;;11.22;77.43
36242;BME280;22283;42.748;12.732;2023-12-28T16:31:32;99139.81;;;11.24;77.47
36242;BME280;22283;42.748;12.732;2023-12-28T16:36:33;99143.75;;;11.33;75.07
36242;BME280;22283;42.748;12.732;2023-12-28T16:41:33;99143.94;;;11.30;74.10
36242;BME280;22283;42.748;12.732;2023-12-28T16:46:34;99152.44;;;11.21;76.15
36242;BME280;22283;42.748;12.732;2023-12-28T16:51:35;99149.63;;;11.08;77.95
36242;BME280;22283;42.748;12.732;2023-12-28T16:56:35;99141.66;;;10.94;79.84
36242;BME280;22283;42.748;12.732;2023-12-28T17:01:37;99148.47;;;10.98;79.23
36242;BME280;22283;42.748;12.732;2023-12-28T17:06:38;99154.63;;;10.98;80.94
36242;BME280;22283;42.748;12.732;2023-12-28T17:11:43;99138.34;;;10.90;81.57
36242;BME280;22283;42.748;12.732;2023-12-28T17:16:45;99134.44;;;10.81;80.60
36242;BME280;22283;42.748;12.732;2023-12-28T17:21:46;99150.75;;;10.74;79.73
36242;BME280;22283;42.748;12.732;2023-12-28T17:26:51;99144.78;;;10.70;79.31
36242;BME280;22283;42.748;12.732;2023-12-28T17:31:56;99153.75;;;10.68;80.49
36242;BME280;22283;42.748;12.732;2023-12-28T17:36:58;99159.75;;;10.55;81.95
36242;BME280;22283;42.748;12.732;2023-12-28T17:41:59;99154.63;;;10.52;82.40
36242;BME280;22283;42.748;12.732;2023-12-28T17:47:06;99143.34;;;10.49;81.35
36242;BME280;22283;42.748;12.732;2023-12-28T17:52:10;99164.19;;;10.55;80.68
36242;BME280;22283;42.748;12.732;2023-12-28T17:57:13;99144.13;;;10.51;81.55
36242;BME280;22283;42.748;12.732;2023-12-28T18:07:33;99159.00;;;10.38;82.92
36242;BME280;22283;42.748;12.732;2023-12-28T18:12:35;99164.88;;;10.43;82.20
36242;BME280;22283;42.748;12.732;2023-12-28T18:17:35;99154.97;;;10.46;81.43
36242;BME280;22283;42.748;12.732;2023-12-28T18:22:37;99140.53;;;10.52;79.87
36242;BME280;22283;42.748;12.732;2023-12-28T18:27:38;99156.66;;;10.63;79.13
36242;BME280;22283;42.748;12.732;2023-12-28T18:32:39;99140.25;;;10.72;78.06
36242;BME280;22283;42.748;12.732;2023-12-28T18:37:41;99134.94;;;10.72;77.97
36242;BME280;22283;42.748;12.732;2023-12-28T18:42:42;99123.25;;;10.76;77.19
36242;BME280;22283;42.748;12.732;2023-12-28T18:47:42;99123.66;;;10.84;75.88
36242;BME280;22283;42.748;12.732;2023-12-28T18:52:43;99131.59;;;10.84;76.46
36242;BME280;22283;42.748;12.732;2023-12-28T18:57:44;99128.03;;;10.86;80.02
36242;BME280;22283;42.748;12.732;2023-12-28T19:02:44;99130.94;;;10.81;77.86
36242;BME280;22283;42.748;12.732;2023-12-28T19:07:45;99138.94;;;10.79;77.42
36242;BME280;22283;42.748;12.732;2023-12-28T19:12:46;99137.94;;;10.82;77.10
36242;BME280;22283;42.748;12.732;2023-12-28T19:17:47;99142.28;;;10.83;77.18
36242;BME280;22283;42.748;12.732;2023-12-28T19:22:48;99138.50;;;10.87;76.64
36242;BME280;22283;42.748;12.732;2023-12-28T19:27:48;99122.34;;;10.92;76.11
36242;BME280;22283;42.748;12.732;2023-12-28T19:32:49;99134.47;;;10.96;76.13
36242;BME280;22283;42.748;12.732;2023-12-28T19:37:50;99125.94;;;10.91;76.38
36242;BME280;22283;42.748;12.732;2023-12-28T19:42:51;99126.91;;;10.90;76.46
36242;BME280;22283;42.748;12.732;2023-12-28T19:47:52;99121.94;;;10.83;76.70
36242;BME280;22283;42.748;12.732;2023-12-28T19:52:53;99119.88;;;10.89;76.64
36242;BME280;22283;42.748;12.732;2023-12-28T19:57:55;99122.72;;;10.86;77.01
36242;BME280;22283;42.748;12.732;2023-12-28T20:02:56;99126.41;;;10.83;77.70
36242;BME280;22283;42.748;12.732;2023-12-28T20:07:57;99131.38;;;10.73;79.38
36242;BME280;22283;42.748;12.732;2023-12-28T20:12:59;99128.84;;;10.56;81.13
36242;BME280;22283;42.748;12.732;2023-12-28T20:18:00;99123.97;;;10.48;81.72
36242;BME280;22283;42.748;12.732;2023-12-28T20:23:01;99128.41;;;10.48;82.11
36242;BME280;22283;42.748;12.732;2023-12-28T20:28:03;99128.59;;;10.45;82.73
36242;BME280;22283;42.748;12.732;2023-12-28T20:33:03;99136.72;;;10.42;82.62
36242;BME280;22283;42.748;12.732;2023-12-28T20:38:04;99133.41;;;10.38;82.64
36242;BME280;22283;42.748;12.732;2023-12-28T20:43:05;99117.31;;;10.57;80.38
36242;BME280;22283;42.748;12.732;2023-12-28T20:48:06;99113.09;;;10.69;79.57
36242;BME280;22283;42.748;12.732;2023-12-28T20:53:06;99112.34;;;10.67;79.26
36242;BME280;22283;42.748;12.732;2023-12-28T20:58:07;99091.03;;;10.54;79.02
36242;BME280;22283;42.748;12.732;2023-12-28T21:03:08;99102.19;;;10.59;78.07
36242;BME280;22283;42.748;12.732;2023-12-28T21:08:08;99092.63;;;10.56;77.65
36242;BME280;22283;42.748;12.732;2023-12-28T21:13:09;99079.69;;;10.52;77.41
36242;BME280;22283;42.748;12.732;2023-12-28T21:18:18;99084.81;;;10.55;77.36
36242;BME280;22283;42.748;12.732;2023-12-28T21:23:19;99086.31;;;10.59;77.36
36242;BME280;22283;42.748;12.732;2023-12-28T21:28:20;99081.03;;;10.59;78.19
36242;BME280;22283;42.748;12.732;2023-12-28T21:33:21;99087.84;;;10.63;78.64
36242;BME280;22283;42.748;12.732;2023-12-28T21:38:22;99090.41;;;10.65;78.43
36242;BME280;22283;42.748;12.732;2023-12-28T21:43:23;99096.38;;;10.68;78.54
36242;BME280;22283;42.748;12.732;2023-12-28T21:48:23;99092.75;;;10.55;80.55
36242;BME280;22283;42.748;12.732;2023-12-28T21:53:24;99095.31;;;10.41;82.29
36242;BME280;22283;42.748;12.732;2023-12-28T21:58:25;99094.41;;;10.26;83.36
36242;BME280;22283;42.748;12.732;2023-12-28T22:03:26;99113.31;;;10.18;84.37
36242;BME280;22283;42.748;12.732;2023-12-28T22:08:26;99107.25;;;10.16;85.01
36242;BME280;22283;42.748;12.732;2023-12-28T22:13:27;99105.72;;;10.12;85.98
36242;BME280;22283;42.748;12.732;2023-12-28T22:18:28;99106.72;;;10.09;86.48
36242;BME280;22283;42.748;12.732;2023-12-28T22:23:28;99091.06;;;10.06;86.98
36242;BME280;22283;42.748;12.732;2023-12-28T22:28:30;99099.00;;;10.06;87.11
36242;BME280;22283;42.748;12.732;2023-12-28T22:33:31;99085.84;;;10.05;87.61
36242;BME280;22283;42.748;12.732;2023-12-28T22:38:32;99089.44;;;10.04;87.63
36242;BME280;22283;42.748;12.732;2023-12-28T22:43:33;99086.03;;;10.02;88.00
36242;BME280;22283;42.748;12.732;2023-12-28T22:48:33;99077.41;;;9.98;88.50
36242;BME280;22283;42.748;12.732;2023-12-28T22:53:34;99078.84;;;10.04;87.33
36242;BME280;22283;42.748;12.732;2023-12-28T22:58:34;99070.22;;;10.00;88.24
36242;BME280;22283;42.748;12.732;2023-12-28T23:03:35;99067.84;;;9.96;88.36
36242;BME280;22283;42.748;12.732;2023-12-28T23:08:36;99051.41;;;9.91;88.81
36242;BME280;22283;42.748;12.732;2023-12-28T23:13:37;99045.44;;;9.87;88.99
36242;BME280;22283;42.748;12.732;2023-12-28T23:18:38;99045.50;;;9.85;89.29
36242;BME280;22283;42.748;12.732;2023-12-28T23:23:39;99042.53;;;9.76;90.29
36242;BME280;22283;42.748;12.732;2023-12-28T23:28:39;99052.25;;;9.75;91.25
36242;BME280;22283;42.748;12.732;2023-12-28T23:33:40;99039.78;;;9.61;92.73
36242;BME280;22283;42.748;12.732;2023-12-28T23:38:41;99052.91;;;9.63;93.39
36242;BME280;22283;42.748;12.732;2023-12-28T23:43:42;99054.28;;;9.54;93.80
36242;BME280;22283;42.748;12.732;2023-12-28T23:48:42;99052.91;;;9.47;94.65
36242;BME280;22283;42.748;12.732;2023-12-28T23:53:45;99043.69;;;9.39;95.64
36242;BME280;22283;42.748;12.732;2023-12-28T23:58:45;99048.03;;;9.40;96.16
